sensor_id;sensor_type;location;lat;lon;timestamp;P1;durP1;ratioP1;P2;durP2;ratioP2
10056;SDS011;5068;51.286;7.518;2024-02-21T00:01:14;9.93;;;3.85;;
10056;SDS011;5068;51.286;7.518;2024-02-21T00:02:48;7.13;;;3.83;;
10056;SDS011;5068;51.286;7.518;2024-02-21T00:04:21;7.72;;;4.03;;
10056;SDS011;5068;51.286;7.518;2024-02-21T00:05:54;7.07;;;3.45;;
10056;SDS011;5068;51.286;7.518;2024-02-21T00:07:28;13.13;;;4.63;;
10056;SDS011;5068;51.286;7.518;2024-02-21T00:09:00;8.57;;;4.13;;
10056;SDS011;5068;51.286;7.518;2024-02-21T00:10:33;12.05;;;4.43;;
10056;SDS011;5068;51.286;7.518;2024-02-21T00:12:07;11.00;;;3.50;;
10056;SDS011;5068;51.286;7.518;2024-02-21T00:13:41;10.35;;;4.00;;
10056;SDS011;5068;51.286;7.518;2024-02-21T00:15:13;9.65;;;4.07;;
10056;SDS011;5068;51.286;7.518;2024-02-21T00:16:46;12.15;;;3.75;;
10056;SDS011;5068;51.286;7.518;2024-02-21T00:18:19;11.15;;;4.28;;
10056;SDS011;5068;51.286;7.518;2024-02-21T00:19:55;11.30;;;4.43;;
10056;SDS011;5068;51.286;7.518;2024-02-21T00:21:28;7.93;;;4.10;;
10056;SDS011;5068;51.286;7.518;2024-02-21T00:23:02;13.30;;;4.72;;
10056;SDS011;5068;51.286;7.518;2024-02-21T00:24:37;8.45;;;3.97;;
10056;SDS011;5068;51.286;7.518;2024-02-21T00:26:10;9.30;;;4.13;;
10056;SDS011;5068;51.286;7.518;2024-02-21T00:27:43;7.80;;;4.38;;
10056;SDS011;5068;51.286;7.518;2024-02-21T00:29:16;12.07;;;4.25;;
10056;SDS011;5068;51.286;7.518;2024-02-21T00:30:48;10.80;;;4.20;;
10056;SDS011;5068;51.286;7.518;2024-02-21T00:32:24;10.07;;;3.92;;
10056;SDS011;5068;51.286;7.518;2024-02-21T00:33:56;9.02;;;4.40;;
10056;SDS011;5068;51.286;7.518;2024-02-21T00:35:30;6.68;;;3.80;;
10056;SDS011;5068;51.286;7.518;2024-02-21T00:37:04;8.88;;;4.10;;
10056;SDS011;5068;51.286;7.518;2024-02-21T00:38:37;9.18;;;4.35;;
10056;SDS011;5068;51.286;7.518;2024-02-21T00:40:10;9.82;;;3.58;;
10056;SDS011;5068;51.286;7.518;2024-02-21T00:41:43;9.32;;;4.13;;
10056;SDS011;5068;51.286;7.518;2024-02-21T00:43:16;11.02;;;4.57;;
10056;SDS011;5068;51.286;7.518;2024-02-21T00:44:49;9.70;;;3.78;;
10056;SDS011;5068;51.286;7.518;2024-02-21T00:46:21;8.48;;;3.97;;
10056;SDS011;5068;51.286;7.518;2024-02-21T00:47:54;9.57;;;4.35;;
10056;SDS011;5068;51.286;7.518;2024-02-21T00:49:28;10.23;;;4.90;;
10056;SDS011;5068;51.286;7.518;2024-02-21T00:51:00;8.65;;;3.72;;
10056;SDS011;5068;51.286;7.518;2024-02-21T00:52:34;9.68;;;4.55;;
10056;SDS011;5068;51.286;7.518;2024-02-21T00:54:06;8.38;;;3.50;;
10056;SDS011;5068;51.286;7.518;2024-02-21T00:55:40;9.35;;;4.43;;
10056;SDS011;5068;51.286;7.518;2024-02-21T00:57:12;8.20;;;3.95;;
10056;SDS011;5068;51.286;7.518;2024-02-21T00:58:46;8.80;;;3.50;;
10056;SDS011;5068;51.286;7.518;2024-02-21T01:00:19;13.05;;;4.28;;
10056;SDS011;5068;51.286;7.518;2024-02-21T01:01:52;7.50;;;3.85;;
10056;SDS011;5068;51.286;7.518;2024-02-21T01:03:24;8.18;;;4.18;;
10056;SDS011;5068;51.286;7.518;2024-02-21T01:04:58;7.85;;;4.13;;
10056;SDS011;5068;51.286;7.518;2024-02-21T01:06:30;8.13;;;3.92;;
10056;SDS011;5068;51.286;7.518;2024-02-21T01:08:05;9.52;;;4.50;;
10056;SDS011;5068;51.286;7.518;2024-02-21T01:09:37;8.45;;;4.35;;
10056;SDS011;5068;51.286;7.518;2024-02-21T01:11:10;9.77;;;4.15;;
10056;SDS011;5068;51.286;7.518;2024-02-21T01:12:43;8.85;;;3.85;;
10056;SDS011;5068;51.286;7.518;2024-02-21T01:14:16;7.43;;;4.03;;
10056;SDS011;5068;51.286;7.518;2024-02-21T01:15:49;9.30;;;4.03;;
10056;SDS011;5068;51.286;7.518;2024-02-21T01:17:22;9.32;;;4.40;;
10056;SDS011;5068;51.286;7.518;2024-02-21T01:18:54;6.80;;;3.78;;
10056;SDS011;5068;51.286;7.518;2024-02-21T01:20:28;8.02;;;3.75;;
10056;SDS011;5068;51.286;7.518;2024-02-21T01:22:00;9.43;;;4.15;;
10056;SDS011;5068;51.286;7.518;2024-02-21T01:23:36;9.60;;;3.67;;
10056;SDS011;5068;51.286;7.518;2024-02-21T01:25:10;8.85;;;3.63;;
10056;SDS011;5068;51.286;7.518;2024-02-21T01:26:42;9.00;;;3.67;;
10056;SDS011;5068;51.286;7.518;2024-02-21T01:28:15;7.97;;;4.03;;
10056;SDS011;5068;51.286;7.518;2024-02-21T01:29:47;8.00;;;3.55;;
10056;SDS011;5068;51.286;7.518;2024-02-21T01:31:21;10.85;;;4.10;;
10056;SDS011;5068;51.286;7.518;2024-02-21T01:32:53;6.85;;;3.00;;
10056;SDS011;5068;51.286;7.518;2024-02-21T01:34:26;10.10;;;3.72;;
10056;SDS011;5068;51.286;7.518;2024-02-21T01:36:03;7.85;;;3.60;;
10056;SDS011;5068;51.286;7.518;2024-02-21T01:37:38;6.15;;;3.50;;
10056;SDS011;5068;51.286;7.518;2024-02-21T01:39:12;5.88;;;3.88;;
10056;SDS011;5068;51.286;7.518;2024-02-21T01:40:45;8.00;;;4.15;;
10056;SDS011;5068;51.286;7.518;2024-02-21T01:42:18;9.30;;;3.70;;
10056;SDS011;5068;51.286;7.518;2024-02-21T01:43:51;7.07;;;3.63;;
10056;SDS011;5068;51.286;7.518;2024-02-21T01:45:24;8.27;;;3.55;;
10056;SDS011;5068;51.286;7.518;2024-02-21T01:46:56;8.20;;;4.13;;
10056;SDS011;5068;51.286;7.518;2024-02-21T01:48:30;8.35;;;3.47;;
10056;SDS011;5068;51.286;7.518;2024-02-21T01:50:04;9.00;;;4.18;;
10056;SDS011;5068;51.286;7.518;2024-02-21T01:51:37;7.57;;;3.92;;
10056;SDS011;5068;51.286;7.518;2024-02-21T01:54:51;7.13;;;2.95;;
10056;SDS011;5068;51.286;7.518;2024-02-21T01:56:24;8.95;;;3.25;;
10056;SDS011;5068;51.286;7.518;2024-02-21T01:57:57;8.13;;;3.65;;
10056;SDS011;5068;51.286;7.518;2024-02-21T01:59:30;8.93;;;3.65;;
10056;SDS011;5068;51.286;7.518;2024-02-21T02:01:03;9.27;;;3.40;;
10056;SDS011;5068;51.286;7.518;2024-02-21T02:02:36;9.05;;;3.83;;
10056;SDS011;5068;51.286;7.518;2024-02-21T02:04:11;12.48;;;3.83;;
10056;SDS011;5068;51.286;7.518;2024-02-21T02:05:45;8.57;;;3.60;;
10056;SDS011;5068;51.286;7.518;2024-02-21T02:07:19;10.32;;;3.88;;
10056;SDS011;5068;51.286;7.518;2024-02-21T02:08:53;9.55;;;3.50;;
10056;SDS011;5068;51.286;7.518;2024-02-21T02:10:27;8.93;;;3.45;;
10056;SDS011;5068;51.286;7.518;2024-02-21T02:12:01;6.97;;;3.50;;
10056;SDS011;5068;51.286;7.518;2024-02-21T02:13:35;8.60;;;3.90;;
10056;SDS011;5068;51.286;7.518;2024-02-21T02:15:07;9.00;;;3.90;;
10056;SDS011;5068;51.286;7.518;2024-02-21T02:16:41;10.93;;;4.05;;
10056;SDS011;5068;51.286;7.518;2024-02-21T02:18:15;8.23;;;3.65;;
10056;SDS011;5068;51.286;7.518;2024-02-21T02:19:50;9.63;;;3.42;;
10056;SDS011;5068;51.286;7.518;2024-02-21T02:21:25;7.38;;;3.40;;
10056;SDS011;5068;51.286;7.518;2024-02-21T02:23:01;9.68;;;3.58;;
10056;SDS011;5068;51.286;7.518;2024-02-21T02:24:42;7.88;;;4.00;;
10056;SDS011;5068;51.286;7.518;2024-02-21T02:26:15;9.38;;;3.60;;
10056;SDS011;5068;51.286;7.518;2024-02-21T02:27:48;7.57;;;3.22;;
10056;SDS011;5068;51.286;7.518;2024-02-21T02:29:20;9.27;;;3.55;;
10056;SDS011;5068;51.286;7.518;2024-02-21T02:30:54;7.28;;;3.70;;
10056;SDS011;5068;51.286;7.518;2024-02-21T02:32:27;10.18;;;3.72;;
10056;SDS011;5068;51.286;7.518;2024-02-21T02:34:00;10.40;;;4.30;;
10056;SDS011;5068;51.286;7.518;2024-02-21T02:35:33;7.55;;;3.75;;
10056;SDS011;5068;51.286;7.518;2024-02-21T02:37:07;7.38;;;3.38;;
10056;SDS011;5068;51.286;7.518;2024-02-21T02:38:40;8.40;;;3.85;;
10056;SDS011;5068;51.286;7.518;2024-02-21T02:40:15;7.75;;;3.45;;
10056;SDS011;5068;51.286;7.518;2024-02-21T02:41:49;7.68;;;3.50;;
10056;SDS011;5068;51.286;7.518;2024-02-21T02:43:21;7.68;;;3.28;;
10056;SDS011;5068;51.286;7.518;2024-02-21T02:44:54;5.82;;;2.92;;
10056;SDS011;5068;51.286;7.518;2024-02-21T02:46:28;7.13;;;3.15;;
10056;SDS011;5068;51.286;7.518;2024-02-21T02:48:02;7.15;;;3.10;;
10056;SDS011;5068;51.286;7.518;2024-02-21T02:49:35;10.85;;;3.75;;
10056;SDS011;5068;51.286;7.518;2024-02-21T02:51:08;10.20;;;4.07;;
10056;SDS011;5068;51.286;7.518;2024-02-21T02:52:40;8.20;;;3.78;;
10056;SDS011;5068;51.286;7.518;2024-02-21T02:54:13;7.60;;;3.80;;
10056;SDS011;5068;51.286;7.518;2024-02-21T02:55:47;7.90;;;3.40;;
10056;SDS011;5068;51.286;7.518;2024-02-21T02:57:20;10.07;;;3.78;;
10056;SDS011;5068;51.286;7.518;2024-02-21T02:58:53;8.05;;;3.03;;
10056;SDS011;5068;51.286;7.518;2024-02-21T03:00:26;9.77;;;3.38;;
10056;SDS011;5068;51.286;7.518;2024-02-21T03:01:58;8.88;;;3.95;;
10056;SDS011;5068;51.286;7.518;2024-02-21T03:03:32;6.45;;;3.60;;
10056;SDS011;5068;51.286;7.518;2024-02-21T03:05:11;9.40;;;3.70;;
10056;SDS011;5068;51.286;7.518;2024-02-21T03:06:47;8.73;;;3.80;;
10056;SDS011;5068;51.286;7.518;2024-02-21T03:08:20;8.98;;;3.40;;
10056;SDS011;5068;51.286;7.518;2024-02-21T03:09:54;7.78;;;3.42;;
10056;SDS011;5068;51.286;7.518;2024-02-21T03:11:28;7.15;;;3.92;;
10056;SDS011;5068;51.286;7.518;2024-02-21T03:13:02;7.20;;;3.70;;
10056;SDS011;5068;51.286;7.518;2024-02-21T03:14:36;12.13;;;4.15;;
10056;SDS011;5068;51.286;7.518;2024-02-21T03:16:08;9.60;;;3.75;;
10056;SDS011;5068;51.286;7.518;2024-02-21T03:17:41;9.10;;;4.03;;
10056;SDS011;5068;51.286;7.518;2024-02-21T03:19:14;7.55;;;3.55;;
10056;SDS011;5068;51.286;7.518;2024-02-21T03:20:47;9.25;;;3.70;;
10056;SDS011;5068;51.286;7.518;2024-02-21T03:22:19;10.00;;;3.88;;
10056;SDS011;5068;51.286;7.518;2024-02-21T03:23:53;10.63;;;3.28;;
10056;SDS011;5068;51.286;7.518;2024-02-21T03:25:26;7.15;;;3.85;;
10056;SDS011;5068;51.286;7.518;2024-02-21T03:26:59;7.60;;;3.58;;
10056;SDS011;5068;51.286;7.518;2024-02-21T03:28:33;8.63;;;3.30;;
10056;SDS011;5068;51.286;7.518;2024-02-21T03:30:07;7.53;;;3.90;;
10056;SDS011;5068;51.286;7.518;2024-02-21T03:31:40;7.60;;;3.70;;
10056;SDS011;5068;51.286;7.518;2024-02-21T03:33:14;9.02;;;3.45;;
10056;SDS011;5068;51.286;7.518;2024-02-21T03:34:47;6.80;;;3.75;;
10056;SDS011;5068;51.286;7.518;2024-02-21T03:36:19;7.78;;;3.35;;
10056;SDS011;5068;51.286;7.518;2024-02-21T03:37:53;8.80;;;3.60;;
10056;SDS011;5068;51.286;7.518;2024-02-21T03:39:25;8.38;;;3.13;;
10056;SDS011;5068;51.286;7.518;2024-02-21T03:40:59;8.55;;;3.75;;
10056;SDS011;5068;51.286;7.518;2024-02-21T03:42:33;8.25;;;3.85;;
10056;SDS011;5068;51.286;7.518;2024-02-21T03:44:06;8.15;;;3.70;;
10056;SDS011;5068;51.286;7.518;2024-02-21T03:45:38;7.80;;;3.33;;
10056;SDS011;5068;51.286;7.518;2024-02-21T03:47:11;7.18;;;3.47;;
10056;SDS011;5068;51.286;7.518;2024-02-21T03:48:44;8.88;;;3.92;;
10056;SDS011;5068;51.286;7.518;2024-02-21T03:50:17;8.90;;;3.65;;
10056;SDS011;5068;51.286;7.518;2024-02-21T03:51:50;8.38;;;3.30;;
10056;SDS011;5068;51.286;7.518;2024-02-21T03:53:23;9.30;;;3.90;;
10056;SDS011;5068;51.286;7.518;2024-02-21T03:54:56;7.45;;;3.55;;
10056;SDS011;5068;51.286;7.518;2024-02-21T03:56:29;8.60;;;3.45;;
10056;SDS011;5068;51.286;7.518;2024-02-21T03:58:03;7.63;;;3.22;;
10056;SDS011;5068;51.286;7.518;2024-02-21T03:59:36;9.05;;;4.13;;
10056;SDS011;5068;51.286;7.518;2024-02-21T04:01:15;7.57;;;3.10;;
10056;SDS011;5068;51.286;7.518;2024-02-21T04:02:49;7.38;;;3.15;;
10056;SDS011;5068;51.286;7.518;2024-02-21T04:04:21;7.57;;;3.63;;
10056;SDS011;5068;51.286;7.518;2024-02-21T04:05:54;7.88;;;3.50;;
10056;SDS011;5068;51.286;7.518;2024-02-21T04:07:27;7.43;;;3.67;;
10056;SDS011;5068;51.286;7.518;2024-02-21T04:09:00;9.20;;;3.80;;
10056;SDS011;5068;51.286;7.518;2024-02-21T04:10:32;7.85;;;3.35;;
10056;SDS011;5068;51.286;7.518;2024-02-21T04:12:07;8.68;;;3.33;;
10056;SDS011;5068;51.286;7.518;2024-02-21T04:13:42;9.98;;;4.18;;
10056;SDS011;5068;51.286;7.518;2024-02-21T04:15:15;6.78;;;3.08;;
10056;SDS011;5068;51.286;7.518;2024-02-21T04:16:49;8.43;;;3.72;;
10056;SDS011;5068;51.286;7.518;2024-02-21T04:18:21;6.28;;;2.92;;
10056;SDS011;5068;51.286;7.518;2024-02-21T04:21:37;6.22;;;3.13;;
10056;SDS011;5068;51.286;7.518;2024-02-21T04:23:10;7.03;;;3.33;;
10056;SDS011;5068;51.286;7.518;2024-02-21T04:24:43;8.80;;;3.70;;
10056;SDS011;5068;51.286;7.518;2024-02-21T04:26:17;7.82;;;3.40;;
10056;SDS011;5068;51.286;7.518;2024-02-21T04:27:49;7.78;;;3.40;;
10056;SDS011;5068;51.286;7.518;2024-02-21T04:29:24;5.57;;;3.22;;
10056;SDS011;5068;51.286;7.518;2024-02-21T04:30:59;7.60;;;3.40;;
10056;SDS011;5068;51.286;7.518;2024-02-21T04:32:31;8.57;;;3.00;;
10056;SDS011;5068;51.286;7.518;2024-02-21T04:34:05;9.80;;;3.65;;
10056;SDS011;5068;51.286;7.518;2024-02-21T04:35:38;6.90;;;3.22;;
10056;SDS011;5068;51.286;7.518;2024-02-21T04:37:11;7.35;;;3.65;;
10056;SDS011;5068;51.286;7.518;2024-02-21T04:38:45;7.65;;;3.17;;
10056;SDS011;5068;51.286;7.518;2024-02-21T04:40:17;8.68;;;3.58;;
10056;SDS011;5068;51.286;7.518;2024-02-21T04:41:50;9.60;;;3.67;;
10056;SDS011;5068;51.286;7.518;2024-02-21T04:43:23;8.65;;;3.95;;
10056;SDS011;5068;51.286;7.518;2024-02-21T04:44:58;8.77;;;3.33;;
10056;SDS011;5068;51.286;7.518;2024-02-21T04:46:31;7.97;;;3.17;;
10056;SDS011;5068;51.286;7.518;2024-02-21T04:48:03;11.75;;;4.18;;
10056;SDS011;5068;51.286;7.518;2024-02-21T04:49:38;8.15;;;3.33;;
10056;SDS011;5068;51.286;7.518;2024-02-21T04:51:11;9.30;;;3.15;;
10056;SDS011;5068;51.286;7.518;2024-02-21T04:52:45;5.82;;;3.35;;
10056;SDS011;5068;51.286;7.518;2024-02-21T04:54:17;8.90;;;2.83;;
10056;SDS011;5068;51.286;7.518;2024-02-21T04:55:50;8.77;;;3.20;;
10056;SDS011;5068;51.286;7.518;2024-02-21T04:57:23;6.55;;;3.30;;
10056;SDS011;5068;51.286;7.518;2024-02-21T04:58:56;8.68;;;3.33;;
10056;SDS011;5068;51.286;7.518;2024-02-21T05:00:30;7.15;;;3.13;;
10056;SDS011;5068;51.286;7.518;2024-02-21T05:02:03;7.00;;;2.88;;
10056;SDS011;5068;51.286;7.518;2024-02-21T05:03:36;6.93;;;3.28;;
10056;SDS011;5068;51.286;7.518;2024-02-21T05:06:43;5.22;;;2.50;;
10056;SDS011;5068;51.286;7.518;2024-02-21T05:08:17;5.05;;;2.50;;
10056;SDS011;5068;51.286;7.518;2024-02-21T05:09:50;6.75;;;3.10;;
10056;SDS011;5068;51.286;7.518;2024-02-21T05:11:23;8.20;;;3.47;;
10056;SDS011;5068;51.286;7.518;2024-02-21T05:12:57;6.53;;;2.90;;
10056;SDS011;5068;51.286;7.518;2024-02-21T05:14:29;8.93;;;3.25;;
10056;SDS011;5068;51.286;7.518;2024-02-21T05:16:04;6.18;;;2.83;;
10056;SDS011;5068;51.286;7.518;2024-02-21T05:17:38;7.13;;;3.30;;
10056;SDS011;5068;51.286;7.518;2024-02-21T05:19:10;7.97;;;3.50;;
10056;SDS011;5068;51.286;7.518;2024-02-21T05:20:44;7.10;;;3.13;;
10056;SDS011;5068;51.286;7.518;2024-02-21T05:22:16;7.10;;;3.05;;
10056;SDS011;5068;51.286;7.518;2024-02-21T05:23:50;7.38;;;2.95;;
10056;SDS011;5068;51.286;7.518;2024-02-21T05:25:23;6.15;;;2.70;;
10056;SDS011;5068;51.286;7.518;2024-02-21T05:26:56;7.60;;;3.25;;
10056;SDS011;5068;51.286;7.518;2024-02-21T05:28:28;8.88;;;3.05;;
10056;SDS011;5068;51.286;7.518;2024-02-21T05:30:02;6.78;;;3.10;;
10056;SDS011;5068;51.286;7.518;2024-02-21T05:31:55;5.30;;;3.25;;
10056;SDS011;5068;51.286;7.518;2024-02-21T05:33:30;5.13;;;2.42;;
10056;SDS011;5068;51.286;7.518;2024-02-21T05:35:03;7.32;;;3.40;;
10056;SDS011;5068;51.286;7.518;2024-02-21T05:36:41;6.13;;;2.90;;
10056;SDS011;5068;51.286;7.518;2024-02-21T05:38:16;5.45;;;2.92;;
10056;SDS011;5068;51.286;7.518;2024-02-21T05:39:50;7.50;;;2.72;;
10056;SDS011;5068;51.286;7.518;2024-02-21T05:41:22;7.25;;;3.15;;
10056;SDS011;5068;51.286;7.518;2024-02-21T05:42:55;7.63;;;3.03;;
10056;SDS011;5068;51.286;7.518;2024-02-21T05:44:29;5.28;;;2.78;;
10056;SDS011;5068;51.286;7.518;2024-02-21T05:46:02;5.45;;;3.03;;
10056;SDS011;5068;51.286;7.518;2024-02-21T05:47:36;8.30;;;2.85;;
10056;SDS011;5068;51.286;7.518;2024-02-21T05:49:09;7.65;;;2.67;;
10056;SDS011;5068;51.286;7.518;2024-02-21T05:50:41;6.43;;;2.88;;
10056;SDS011;5068;51.286;7.518;2024-02-21T05:52:15;6.07;;;2.67;;
10056;SDS011;5068;51.286;7.518;2024-02-21T05:53:47;6.55;;;3.00;;
10056;SDS011;5068;51.286;7.518;2024-02-21T05:55:21;6.43;;;3.05;;
10056;SDS011;5068;51.286;7.518;2024-02-21T05:56:54;6.45;;;3.35;;
10056;SDS011;5068;51.286;7.518;2024-02-21T05:58:28;5.68;;;3.03;;
10056;SDS011;5068;51.286;7.518;2024-02-21T06:00:03;5.97;;;3.08;;
10056;SDS011;5068;51.286;7.518;2024-02-21T06:01:42;6.55;;;3.50;;
10056;SDS011;5068;51.286;7.518;2024-02-21T06:03:17;8.13;;;3.35;;
10056;SDS011;5068;51.286;7.518;2024-02-21T06:04:49;6.82;;;3.15;;
10056;SDS011;5068;51.286;7.518;2024-02-21T06:06:23;8.10;;;3.40;;
10056;SDS011;5068;51.286;7.518;2024-02-21T06:07:56;5.68;;;3.03;;
10056;SDS011;5068;51.286;7.518;2024-02-21T06:09:30;10.30;;;3.17;;
10056;SDS011;5068;51.286;7.518;2024-02-21T06:11:03;8.90;;;3.33;;
10056;SDS011;5068;51.286;7.518;2024-02-21T06:12:36;4.93;;;2.88;;
10056;SDS011;5068;51.286;7.518;2024-02-21T06:14:09;7.38;;;3.45;;
10056;SDS011;5068;51.286;7.518;2024-02-21T06:15:42;7.50;;;3.20;;
10056;SDS011;5068;51.286;7.518;2024-02-21T06:17:15;7.05;;;3.13;;
10056;SDS011;5068;51.286;7.518;2024-02-21T06:18:50;7.43;;;3.13;;
10056;SDS011;5068;51.286;7.518;2024-02-21T06:20:22;6.68;;;3.20;;
10056;SDS011;5068;51.286;7.518;2024-02-21T06:21:55;9.63;;;3.33;;
10056;SDS011;5068;51.286;7.518;2024-02-21T06:23:29;9.77;;;3.65;;
10056;SDS011;5068;51.286;7.518;2024-02-21T06:25:01;8.00;;;3.15;;
10056;SDS011;5068;51.286;7.518;2024-02-21T06:26:34;6.25;;;2.95;;
10056;SDS011;5068;51.286;7.518;2024-02-21T06:28:06;5.93;;;3.20;;
10056;SDS011;5068;51.286;7.518;2024-02-21T06:29:39;6.20;;;2.70;;
10056;SDS011;5068;51.286;7.518;2024-02-21T06:31:12;9.55;;;3.05;;
10056;SDS011;5068;51.286;7.518;2024-02-21T06:32:47;6.70;;;2.90;;
10056;SDS011;5068;51.286;7.518;2024-02-21T06:34:21;6.00;;;2.70;;
10056;SDS011;5068;51.286;7.518;2024-02-21T06:35:55;7.65;;;3.10;;
10056;SDS011;5068;51.286;7.518;2024-02-21T06:37:28;7.72;;;3.15;;
10056;SDS011;5068;51.286;7.518;2024-02-21T06:39:01;7.40;;;3.47;;
10056;SDS011;5068;51.286;7.518;2024-02-21T06:40:36;5.53;;;3.35;;
10056;SDS011;5068;51.286;7.518;2024-02-21T06:42:11;6.82;;;3.47;;
10056;SDS011;5068;51.286;7.518;2024-02-21T06:43:44;8.05;;;3.13;;
10056;SDS011;5068;51.286;7.518;2024-02-21T06:45:17;7.30;;;3.33;;
10056;SDS011;5068;51.286;7.518;2024-02-21T06:46:51;6.57;;;3.20;;
10056;SDS011;5068;51.286;7.518;2024-02-21T06:48:23;7.35;;;3.25;;
10056;SDS011;5068;51.286;7.518;2024-02-21T06:49:58;6.25;;;3.67;;
10056;SDS011;5068;51.286;7.518;2024-02-21T06:51:30;8.27;;;3.35;;
10056;SDS011;5068;51.286;7.518;2024-02-21T06:53:03;6.68;;;3.40;;
10056;SDS011;5068;51.286;7.518;2024-02-21T06:54:36;6.30;;;3.28;;
10056;SDS011;5068;51.286;7.518;2024-02-21T06:56:24;4.13;;;2.50;;
10056;SDS011;5068;51.286;7.518;2024-02-21T06:58:00;4.50;;;2.85;;
10056;SDS011;5068;51.286;7.518;2024-02-21T06:59:33;6.78;;;3.53;;
10056;SDS011;5068;51.286;7.518;2024-02-21T07:01:06;4.72;;;2.65;;
10056;SDS011;5068;51.286;7.518;2024-02-21T07:02:38;6.25;;;2.45;;
10056;SDS011;5068;51.286;7.518;2024-02-21T07:04:12;4.57;;;3.05;;
10056;SDS011;5068;51.286;7.518;2024-02-21T07:05:45;5.85;;;3.25;;
10056;SDS011;5068;51.286;7.518;2024-02-21T07:07:19;5.45;;;2.67;;
10056;SDS011;5068;51.286;7.518;2024-02-21T07:08:52;6.90;;;2.85;;
10056;SDS011;5068;51.286;7.518;2024-02-21T07:10:25;5.20;;;2.80;;
10056;SDS011;5068;51.286;7.518;2024-02-21T07:11:59;5.20;;;2.60;;
10056;SDS011;5068;51.286;7.518;2024-02-21T07:13:31;6.00;;;3.00;;
10056;SDS011;5068;51.286;7.518;2024-02-21T07:15:05;6.88;;;2.95;;
10056;SDS011;5068;51.286;7.518;2024-02-21T07:16:38;5.63;;;3.03;;
10056;SDS011;5068;51.286;7.518;2024-02-21T07:18:11;5.57;;;2.65;;
10056;SDS011;5068;51.286;7.518;2024-02-21T07:19:43;6.55;;;2.80;;
10056;SDS011;5068;51.286;7.518;2024-02-21T07:21:18;5.07;;;2.65;;
10056;SDS011;5068;51.286;7.518;2024-02-21T07:22:50;5.68;;;2.88;;
10056;SDS011;5068;51.286;7.518;2024-02-21T07:24:24;5.97;;;2.70;;
10056;SDS011;5068;51.286;7.518;2024-02-21T07:25:57;6.55;;;2.50;;
10056;SDS011;5068;51.286;7.518;2024-02-21T07:27:29;5.45;;;2.47;;
10056;SDS011;5068;51.286;7.518;2024-02-21T07:29:04;5.07;;;2.80;;
10056;SDS011;5068;51.286;7.518;2024-02-21T07:30:37;6.32;;;3.03;;
10056;SDS011;5068;51.286;7.518;2024-02-21T07:32:10;6.50;;;3.05;;
10056;SDS011;5068;51.286;7.518;2024-02-21T07:33:43;5.35;;;2.67;;
10056;SDS011;5068;51.286;7.518;2024-02-21T07:35:17;5.43;;;2.42;;
10056;SDS011;5068;51.286;7.518;2024-02-21T07:36:51;5.20;;;2.33;;
10056;SDS011;5068;51.286;7.518;2024-02-21T07:38:24;5.78;;;2.53;;
10056;SDS011;5068;51.286;7.518;2024-02-21T07:39:57;6.22;;;2.67;;
10056;SDS011;5068;51.286;7.518;2024-02-21T07:41:29;5.55;;;2.42;;
10056;SDS011;5068;51.286;7.518;2024-02-21T07:43:03;9.00;;;3.00;;
10056;SDS011;5068;51.286;7.518;2024-02-21T07:44:35;5.50;;;2.38;;
10056;SDS011;5068;51.286;7.518;2024-02-21T07:46:08;5.57;;;2.70;;
10056;SDS011;5068;51.286;7.518;2024-02-21T07:47:41;7.60;;;2.70;;
10056;SDS011;5068;51.286;7.518;2024-02-21T07:49:14;4.93;;;2.47;;
10056;SDS011;5068;51.286;7.518;2024-02-21T07:50:48;6.32;;;2.53;;
10056;SDS011;5068;51.286;7.518;2024-02-21T07:52:22;6.93;;;2.75;;
10056;SDS011;5068;51.286;7.518;2024-02-21T07:53:56;6.68;;;2.85;;
10056;SDS011;5068;51.286;7.518;2024-02-21T07:55:28;6.20;;;2.97;;
10056;SDS011;5068;51.286;7.518;2024-02-21T07:57:01;7.13;;;2.75;;
10056;SDS011;5068;51.286;7.518;2024-02-21T07:58:34;6.50;;;3.25;;
10056;SDS011;5068;51.286;7.518;2024-02-21T08:00:08;6.82;;;2.85;;
10056;SDS011;5068;51.286;7.518;2024-02-21T08:01:45;6.90;;;2.78;;
10056;SDS011;5068;51.286;7.518;2024-02-21T08:03:18;5.70;;;2.30;;
10056;SDS011;5068;51.286;7.518;2024-02-21T08:04:52;5.85;;;2.67;;
10056;SDS011;5068;51.286;7.518;2024-02-21T08:06:25;5.75;;;2.42;;
10056;SDS011;5068;51.286;7.518;2024-02-21T08:08:00;5.45;;;2.30;;
10056;SDS011;5068;51.286;7.518;2024-02-21T08:09:32;5.05;;;2.63;;
10056;SDS011;5068;51.286;7.518;2024-02-21T08:11:06;5.57;;;2.65;;
10056;SDS011;5068;51.286;7.518;2024-02-21T08:12:39;4.93;;;2.33;;
10056;SDS011;5068;51.286;7.518;2024-02-21T08:14:12;5.15;;;2.60;;
10056;SDS011;5068;51.286;7.518;2024-02-21T08:15:51;5.68;;;2.67;;
10056;SDS011;5068;51.286;7.518;2024-02-21T08:17:24;4.22;;;2.55;;
10056;SDS011;5068;51.286;7.518;2024-02-21T08:18:57;4.72;;;2.75;;
10056;SDS011;5068;51.286;7.518;2024-02-21T08:20:31;5.32;;;3.10;;
10056;SDS011;5068;51.286;7.518;2024-02-21T08:22:03;5.60;;;3.08;;
10056;SDS011;5068;51.286;7.518;2024-02-21T08:23:39;6.25;;;3.30;;
10056;SDS011;5068;51.286;7.518;2024-02-21T08:25:12;6.00;;;3.17;;
10056;SDS011;5068;51.286;7.518;2024-02-21T08:26:45;5.63;;;2.42;;
10056;SDS011;5068;51.286;7.518;2024-02-21T08:28:17;5.88;;;2.83;;
10056;SDS011;5068;51.286;7.518;2024-02-21T08:29:51;7.03;;;2.70;;
10056;SDS011;5068;51.286;7.518;2024-02-21T08:31:23;5.78;;;2.90;;
10056;SDS011;5068;51.286;7.518;2024-02-21T08:33:02;6.28;;;2.70;;
10056;SDS011;5068;51.286;7.518;2024-02-21T08:34:36;6.72;;;2.88;;
10056;SDS011;5068;51.286;7.518;2024-02-21T08:36:08;5.40;;;2.60;;
10056;SDS011;5068;51.286;7.518;2024-02-21T08:37:49;5.00;;;2.58;;
10056;SDS011;5068;51.286;7.518;2024-02-21T08:39:23;5.32;;;2.28;;
10056;SDS011;5068;51.286;7.518;2024-02-21T08:40:56;5.72;;;2.35;;
10056;SDS011;5068;51.286;7.518;2024-02-21T08:42:29;5.35;;;2.30;;
10056;SDS011;5068;51.286;7.518;2024-02-21T08:44:05;5.43;;;2.45;;
10056;SDS011;5068;51.286;7.518;2024-02-21T08:45:38;5.88;;;2.50;;
10056;SDS011;5068;51.286;7.518;2024-02-21T08:47:11;5.07;;;1.90;;
10056;SDS011;5068;51.286;7.518;2024-02-21T08:48:44;4.93;;;2.20;;
10056;SDS011;5068;51.286;7.518;2024-02-21T08:50:18;4.65;;;2.22;;
10056;SDS011;5068;51.286;7.518;2024-02-21T08:52:01;4.30;;;1.83;;
10056;SDS011;5068;51.286;7.518;2024-02-21T08:53:35;4.72;;;2.03;;
10056;SDS011;5068;51.286;7.518;2024-02-21T08:55:09;7.32;;;2.08;;
10056;SDS011;5068;51.286;7.518;2024-02-21T08:56:43;4.85;;;1.70;;
10056;SDS011;5068;51.286;7.518;2024-02-21T08:58:15;5.25;;;1.98;;
10056;SDS011;5068;51.286;7.518;2024-02-21T08:59:52;5.30;;;2.13;;
10056;SDS011;5068;51.286;7.518;2024-02-21T09:01:24;7.03;;;2.10;;
10056;SDS011;5068;51.286;7.518;2024-02-21T09:02:58;5.18;;;2.13;;
10056;SDS011;5068;51.286;7.518;2024-02-21T09:04:31;3.40;;;1.75;;
10056;SDS011;5068;51.286;7.518;2024-02-21T09:06:05;4.90;;;1.98;;
10056;SDS011;5068;51.286;7.518;2024-02-21T09:07:38;4.80;;;2.10;;
10056;SDS011;5068;51.286;7.518;2024-02-21T09:09:12;5.53;;;1.77;;
10056;SDS011;5068;51.286;7.518;2024-02-21T09:10:45;3.55;;;1.55;;
10056;SDS011;5068;51.286;7.518;2024-02-21T09:13:51;6.40;;;1.88;;
10056;SDS011;5068;51.286;7.518;2024-02-21T09:15:24;3.53;;;1.63;;
10056;SDS011;5068;51.286;7.518;2024-02-21T09:16:56;6.97;;;1.90;;
10056;SDS011;5068;51.286;7.518;2024-02-21T09:18:30;5.55;;;2.08;;
10056;SDS011;5068;51.286;7.518;2024-02-21T09:20:02;3.78;;;1.70;;
10056;SDS011;5068;51.286;7.518;2024-02-21T09:21:37;3.88;;;1.80;;
10056;SDS011;5068;51.286;7.518;2024-02-21T09:23:10;6.63;;;2.13;;
10056;SDS011;5068;51.286;7.518;2024-02-21T09:24:43;7.05;;;2.20;;
10056;SDS011;5068;51.286;7.518;2024-02-21T09:26:16;5.55;;;1.77;;
10056;SDS011;5068;51.286;7.518;2024-02-21T09:29:23;8.13;;;1.77;;
10056;SDS011;5068;51.286;7.518;2024-02-21T09:30:58;4.43;;;1.90;;
10056;SDS011;5068;51.286;7.518;2024-02-21T09:32:31;7.13;;;2.30;;
10056;SDS011;5068;51.286;7.518;2024-02-21T09:34:05;3.80;;;2.00;;
10056;SDS011;5068;51.286;7.518;2024-02-21T09:35:38;6.63;;;1.98;;
10056;SDS011;5068;51.286;7.518;2024-02-21T09:37:11;3.83;;;2.25;;
10056;SDS011;5068;51.286;7.518;2024-02-21T09:38:44;6.32;;;2.00;;
10056;SDS011;5068;51.286;7.518;2024-02-21T09:40:17;5.20;;;2.40;;